createdAt,value
2018-02-21T00:02:18.666Z,54.50
2018-02-21T00:04:47.438Z,61.13
2018-02-21T00:07:15.493Z,56.30
2018-02-21T00:09:44.083Z,82.80
2018-02-21T00:12:12.134Z,75.77
2018-02-21T00:14:40.238Z,58.80
2018-02-21T00:17:09.946Z,53.97
2018-02-21T00:19:38.008Z,57.90
2018-02-21T00:22:06.278Z,60.40
2018-02-21T00:24:34.345Z,47.90
2018-02-21T00:27:03.351Z,56.23
2018-02-21T00:29:32.163Z,50.30
2018-02-21T00:32:00.359Z,51.00
2018-02-21T00:34:28.449Z,50.03
2018-02-21T00:36:56.462Z,54.13
2018-02-21T00:39:24.860Z,63.93
2018-02-21T00:41:52.933Z,52.57
2018-02-21T00:44:21.513Z,48.53
2018-02-21T00:46:49.583Z,50.43
2018-02-21T00:49:17.637Z,47.93
2018-02-21T00:51:46.478Z,55.53
2018-02-21T00:54:14.526Z,47.97
2018-02-21T00:56:43.356Z,54.23
2018-02-21T00:59:11.641Z,62.67
2018-02-21T01:01:39.688Z,58.03
2018-02-21T01:04:08.593Z,54.33
2018-02-21T01:06:36.800Z,50.13
2018-02-21T01:09:04.869Z,53.13
2018-02-21T01:11:33.669Z,46.50
2018-02-21T01:14:03.053Z,47.40
2018-02-21T01:16:31.116Z,48.37
2018-02-21T01:18:59.186Z,47.60
2018-02-21T01:21:27.391Z,48.07
2018-02-21T01:23:55.416Z,48.13
2018-02-21T01:26:24.377Z,45.93
2018-02-21T01:28:52.435Z,45.13
2018-02-21T01:31:20.511Z,45.63
2018-02-21T01:33:48.584Z,44.43
2018-02-21T01:36:16.642Z,45.00
2018-02-21T01:38:44.797Z,46.53
2018-02-21T01:41:12.851Z,42.30
2018-02-21T01:43:40.920Z,45.33
2018-02-21T01:46:08.984Z,45.63
2018-02-21T01:48:37.816Z,45.93
2018-02-21T01:51:05.896Z,45.80
2018-02-21T01:53:34.707Z,42.50
2018-02-21T01:56:02.884Z,43.40
2018-02-21T01:58:30.984Z,47.13
2018-02-21T02:00:59.049Z,44.33
2018-02-21T02:03:27.296Z,43.57
2018-02-21T02:05:55.338Z,44.70
2018-02-21T02:08:23.390Z,45.43
2018-02-21T02:10:52.344Z,43.20
2018-02-21T02:13:20.402Z,45.60
2018-02-21T02:15:48.592Z,44.27
2018-02-21T02:18:16.655Z,44.93
2018-02-21T02:20:44.738Z,41.50
2018-02-21T02:23:12.856Z,41.90
2018-02-21T02:25:40.873Z,44.83
2018-02-21T02:28:09.067Z,43.67
2018-02-21T02:30:37.127Z,41.37
2018-02-21T02:33:05.183Z,43.53
2018-02-21T02:35:33.244Z,44.10
2018-02-21T02:38:02.496Z,42.57
2018-02-21T02:40:30.529Z,41.47
2018-02-21T02:42:58.586Z,41.27
2018-02-21T02:45:26.685Z,42.70
2018-02-21T02:47:56.521Z,42.17
2018-02-21T02:50:25.396Z,44.50
2018-02-21T02:52:53.437Z,40.23
2018-02-21T02:55:21.516Z,42.07
2018-02-21T02:57:49.582Z,41.10
2018-02-21T03:00:17.750Z,42.80
2018-02-21T03:02:46.743Z,41.90
2018-02-21T03:05:14.796Z,43.13
2018-02-21T03:07:42.995Z,41.07
2018-02-21T03:10:11.067Z,41.17
2018-02-21T03:12:39.216Z,42.90
2018-02-21T03:15:07.583Z,41.67
2018-02-21T03:17:36.516Z,42.93
2018-02-21T03:20:04.560Z,41.83
2018-02-21T03:22:32.624Z,41.07
2018-02-21T03:25:01.467Z,39.43
2018-02-21T03:27:29.621Z,43.00
2018-02-21T03:29:57.671Z,41.27
2018-02-21T03:32:25.738Z,39.93
2018-02-21T03:34:53.822Z,42.97
2018-02-21T03:37:21.861Z,41.67
2018-02-21T03:39:51.366Z,38.93
2018-02-21T03:42:19.420Z,40.53
2018-02-21T03:44:47.488Z,40.20
2018-02-21T03:47:15.676Z,38.97
2018-02-21T03:49:43.735Z,39.37
2018-02-21T03:52:11.817Z,39.17
2018-02-21T03:54:40.651Z,39.90
2018-02-21T03:57:08.723Z,39.47
2018-02-21T03:59:36.841Z,38.13
2018-02-21T04:02:04.908Z,39.07
2018-02-21T04:04:33.009Z,39.50
2018-02-21T04:07:01.054Z,40.77
2018-02-21T04:09:29.137Z,41.40
2018-02-21T04:11:57.276Z,43.90
2018-02-21T04:14:25.459Z,42.37
2018-02-21T04:16:53.515Z,42.33
2018-02-21T04:19:21.583Z,36.97
2018-02-21T04:21:49.647Z,40.37
2018-02-21T04:24:17.715Z,40.00
2018-02-21T04:26:46.656Z,39.20
2018-02-21T04:29:14.738Z,37.73
2018-02-21T04:31:43.458Z,39.43
2018-02-21T04:34:11.724Z,39.37
2018-02-21T04:36:39.796Z,39.40
2018-02-21T04:39:07.904Z,38.10
2018-02-21T04:41:36.038Z,38.10
2018-02-21T04:44:05.182Z,41.53
2018-02-21T04:46:33.262Z,39.33
2018-02-21T04:49:01.314Z,38.70
2018-02-21T04:51:30.156Z,38.97
2018-02-21T04:53:58.204Z,40.00
2018-02-21T04:56:45.899Z,39.97
2018-02-21T04:59:24.120Z,39.83
2018-02-21T05:01:52.968Z,38.33
2018-02-21T05:04:21.788Z,40.60
2018-02-21T05:06:49.865Z,39.40
2018-02-21T05:09:18.053Z,38.97
2018-02-21T05:11:46.115Z,41.77
2018-02-21T05:14:14.961Z,41.93
2018-02-21T05:16:43.381Z,41.27
2018-02-21T05:19:11.515Z,42.57
2018-02-21T05:21:39.596Z,43.43
2018-02-21T05:24:07.745Z,40.03
2018-02-21T05:26:35.877Z,44.30
2018-02-21T05:29:03.954Z,44.77
2018-02-21T05:31:32.015Z,41.77
2018-02-21T05:34:00.069Z,42.93
2018-02-21T05:36:28.136Z,42.40
2018-02-21T05:38:56.203Z,42.40
2018-02-21T05:41:24.264Z,45.87
2018-02-21T05:43:52.314Z,43.67
2018-02-21T05:46:20.376Z,43.37
2018-02-21T05:48:48.423Z,42.63
2018-02-21T05:51:16.480Z,42.27
2018-02-21T05:53:45.995Z,41.67
2018-02-21T05:56:14.815Z,44.30
2018-02-21T05:58:42.866Z,42.10
2018-02-21T06:01:10.932Z,42.27
2018-02-21T06:03:39.012Z,61.30
2018-02-21T06:06:07.064Z,49.57
2018-02-21T06:08:35.137Z,42.93
2018-02-21T06:11:03.216Z,44.87
2018-02-21T06:13:31.285Z,48.97
2018-02-21T06:16:00.106Z,71.30
2018-02-21T06:18:28.223Z,48.53
2018-02-21T06:20:56.994Z,76.97
2018-02-21T06:23:25.038Z,56.93
2018-02-21T06:25:53.105Z,55.30
2018-02-21T06:28:21.198Z,60.53
2018-02-21T06:30:49.726Z,40.93
2018-02-21T06:33:17.770Z,58.60
2018-02-21T06:35:45.863Z,52.10
2018-02-21T06:38:13.919Z,56.70
2018-02-21T06:40:42.094Z,41.50
2018-02-21T06:43:10.165Z,40.03
2018-02-21T06:45:38.216Z,41.83
2018-02-21T06:48:07.088Z,41.63
2018-02-21T06:50:35.110Z,40.40
2018-02-21T06:53:03.732Z,39.53
2018-02-21T06:55:31.788Z,41.87
2018-02-21T06:57:59.850Z,42.03
2018-02-21T07:00:27.903Z,41.30
2018-02-21T07:02:55.958Z,45.57
2018-02-21T07:05:24.030Z,39.17
2018-02-21T07:07:52.098Z,39.77
2018-02-21T07:10:20.933Z,38.33
2018-02-21T07:12:49.063Z,36.50
2018-02-21T07:15:17.132Z,36.90
2018-02-21T07:17:45.303Z,36.57
2018-02-21T07:20:13.344Z,34.83
2018-02-21T07:22:41.402Z,36.23
2018-02-21T07:25:09.464Z,35.63
2018-02-21T07:27:37.518Z,35.20
2018-02-21T07:30:05.589Z,35.67
2018-02-21T07:32:33.658Z,37.13
2018-02-21T07:35:02.475Z,36.87
2018-02-21T07:37:30.537Z,38.60
2018-02-21T07:39:59.360Z,43.43
2018-02-21T07:42:27.410Z,35.00
2018-02-21T07:44:56.230Z,33.63
2018-02-21T07:47:24.287Z,33.57
2018-02-21T07:49:52.346Z,38.10
2018-02-21T07:52:20.408Z,35.50
2018-02-21T07:54:48.466Z,33.90
2018-02-21T07:57:16.545Z,36.37
2018-02-21T07:59:45.376Z,32.83
2018-02-21T08:02:13.440Z,33.77
2018-02-21T08:04:41.489Z,31.27
2018-02-21T08:07:09.547Z,33.43
2018-02-21T08:09:37.606Z,33.93
2018-02-21T08:12:05.676Z,31.47
2018-02-21T08:14:33.730Z,33.97
2018-02-21T08:17:02.547Z,38.87
2018-02-21T08:19:30.658Z,33.00
2018-02-21T08:21:58.718Z,33.90
2018-02-21T08:24:26.775Z,36.50
2018-02-21T08:26:54.824Z,38.80
2018-02-21T08:29:22.886Z,42.63
2018-02-21T08:31:50.955Z,37.93
2018-02-21T08:34:18.993Z,46.97
2018-02-21T08:36:47.048Z,42.33
2018-02-21T08:39:15.122Z,46.40
2018-02-21T08:41:43.240Z,37.13
2018-02-21T08:44:11.308Z,44.97
2018-02-21T08:46:39.357Z,48.57
2018-02-21T08:49:07.422Z,42.03
2018-02-21T08:51:36.264Z,40.53
2018-02-21T08:54:04.311Z,41.50
2018-02-21T08:56:32.361Z,39.87
2018-02-21T08:59:00.427Z,41.47
2018-02-21T09:01:28.474Z,56.20
2018-02-21T09:03:56.540Z,44.60
2018-02-21T09:06:24.592Z,37.27
2018-02-21T09:08:52.642Z,36.77
2018-02-21T09:11:20.716Z,36.83
2018-02-21T09:13:49.523Z,35.77
2018-02-21T09:16:17.728Z,33.73
2018-02-21T09:18:45.776Z,42.57
2018-02-21T09:21:13.830Z,41.93
2018-02-21T09:23:42.646Z,40.20
2018-02-21T09:26:10.699Z,40.73
2018-02-21T09:28:38.751Z,41.67
2018-02-21T09:31:06.828Z,38.17
2018-02-21T09:33:34.893Z,37.73
2018-02-21T09:36:02.971Z,40.00
2018-02-21T09:38:31.049Z,39.60
2018-02-21T09:40:59.099Z,40.27
2018-02-21T09:43:27.164Z,39.93
2018-02-21T09:45:55.229Z,39.73
2018-02-21T09:48:23.389Z,39.77
2018-02-21T09:50:51.448Z,40.80
2018-02-21T09:53:20.277Z,39.53
2018-02-21T09:55:48.318Z,39.17
2018-02-21T09:58:16.391Z,39.73
2018-02-21T10:00:44.438Z,40.53
2018-02-21T10:03:12.522Z,41.43
2018-02-21T10:05:40.580Z,41.40
2018-02-21T10:08:08.630Z,42.70
2018-02-21T10:10:36.679Z,41.23
2018-02-21T10:13:04.780Z,40.87
2018-02-21T10:15:32.810Z,41.80
2018-02-21T10:18:00.876Z,44.17
2018-02-21T10:20:28.937Z,43.43
2018-02-21T10:22:57.010Z,43.47
2018-02-21T10:25:25.084Z,42.10
2018-02-21T10:27:53.180Z,41.30
2018-02-21T10:30:21.247Z,51.27
2018-02-21T10:32:49.311Z,47.77
2018-02-21T10:35:17.384Z,52.10
2018-02-21T10:37:45.435Z,49.93
2018-02-21T10:40:13.512Z,50.77
2018-02-21T10:42:41.581Z,50.37
2018-02-21T10:45:09.678Z,52.43
2018-02-21T10:47:37.736Z,52.27
2018-02-21T10:50:05.930Z,52.13
2018-02-21T10:52:34.004Z,52.30
2018-02-21T10:55:02.026Z,56.03
2018-02-21T10:57:30.876Z,54.97
2018-02-21T10:59:58.918Z,55.70
2018-02-21T11:02:27.759Z,62.60
2018-02-21T11:04:56.702Z,53.50
2018-02-21T11:07:24.720Z,53.50
2018-02-21T11:09:52.766Z,50.47
2018-02-21T11:12:20.833Z,47.93
2018-02-21T11:14:48.876Z,50.57
2018-02-21T11:17:16.951Z,49.40
2018-02-21T11:19:45.012Z,49.43
2018-02-21T11:22:13.105Z,47.60
2018-02-21T11:24:41.931Z,49.13
2018-02-21T11:27:10.014Z,47.70
2018-02-21T11:29:38.087Z,46.47
2018-02-21T11:32:06.164Z,44.60
2018-02-21T11:34:34.996Z,46.93
2018-02-21T11:37:03.075Z,48.27
2018-02-21T11:39:31.163Z,46.07
2018-02-21T11:41:59.218Z,47.27
2018-02-21T11:44:27.328Z,47.00
2018-02-21T11:46:55.388Z,47.47
2018-02-21T11:49:23.451Z,51.40
2018-02-21T11:51:51.499Z,48.77
2018-02-21T11:54:19.546Z,49.37
2018-02-21T11:56:47.622Z,49.53
2018-02-21T11:59:16.444Z,46.37
2018-02-21T12:01:44.528Z,47.63
2018-02-21T12:04:13.346Z,47.90
2018-02-21T12:06:41.407Z,46.10
2018-02-21T12:09:09.481Z,47.07
2018-02-21T12:11:37.527Z,47.70
2018-02-21T12:14:05.589Z,45.80
2018-02-21T12:16:33.650Z,45.30
2018-02-21T12:19:01.728Z,44.90
2018-02-21T12:21:29.972Z,44.47
2018-02-21T12:23:58.105Z,45.63
2018-02-21T12:26:26.164Z,45.27
2018-02-21T12:28:54.219Z,43.97
2018-02-21T12:31:22.277Z,47.03
2018-02-21T12:33:50.314Z,48.47
2018-02-21T12:36:18.396Z,45.53
2018-02-21T12:38:52.069Z,47.23
2018-02-21T12:41:25.884Z,46.83
2018-02-21T12:43:53.944Z,45.63
2018-02-21T12:46:22.032Z,46.57
2018-02-21T12:48:50.075Z,46.63
2018-02-21T12:51:18.166Z,43.73
2018-02-21T12:53:46.242Z,51.97
2018-02-21T12:56:14.314Z,45.87
2018-02-21T12:58:43.242Z,44.40
2018-02-21T13:01:11.319Z,46.60
2018-02-21T13:03:39.362Z,46.57
2018-02-21T13:06:07.441Z,45.67
2018-02-21T13:08:35.487Z,45.27
2018-02-21T13:11:03.546Z,46.30
2018-02-21T13:13:31.609Z,45.77
2018-02-21T13:15:59.668Z,46.57
2018-02-21T13:18:27.746Z,43.73
2018-02-21T13:20:55.794Z,45.13
2018-02-21T13:23:24.640Z,45.03
2018-02-21T13:25:52.702Z,54.63
2018-02-21T13:28:20.772Z,43.17
2018-02-21T13:30:48.844Z,45.00
2018-02-21T13:33:16.920Z,44.13
2018-02-21T13:35:45.046Z,41.93
2018-02-21T13:38:13.103Z,43.37
2018-02-21T13:40:41.180Z,44.47
2018-02-21T13:43:09.299Z,49.40
2018-02-21T13:45:37.368Z,43.27
2018-02-21T13:48:05.435Z,42.73
2018-02-21T13:50:33.501Z,44.17
2018-02-21T13:53:01.550Z,43.27
2018-02-21T13:55:29.659Z,41.30
2018-02-21T13:57:57.699Z,41.07
2018-02-21T14:00:25.774Z,38.37
2018-02-21T14:02:53.856Z,37.40
2018-02-21T14:05:21.904Z,37.97
2018-02-21T14:07:49.980Z,37.57
2018-02-21T14:10:18.050Z,37.67
2018-02-21T14:12:46.912Z,38.53
2018-02-21T14:15:14.983Z,37.13
2018-02-21T14:17:43.061Z,38.10
2018-02-21T14:20:11.136Z,35.90
2018-02-21T14:22:39.208Z,35.27
2018-02-21T14:25:07.292Z,36.33
2018-02-21T14:27:35.356Z,34.73
2018-02-21T14:30:04.192Z,36.43
2018-02-21T14:32:32.248Z,37.27
2018-02-21T14:35:00.314Z,37.57
2018-02-21T14:37:29.132Z,39.23
2018-02-21T14:39:57.198Z,39.77
2018-02-21T14:42:26.019Z,37.43
2018-02-21T14:44:54.078Z,37.70
2018-02-21T14:47:22.919Z,40.03
2018-02-21T14:49:50.983Z,39.73
2018-02-21T14:52:19.799Z,40.50
2018-02-21T14:54:48.628Z,39.13
2018-02-21T14:57:16.692Z,40.97
2018-02-21T14:59:44.788Z,40.27
2018-02-21T15:02:12.849Z,41.10
2018-02-21T15:04:40.905Z,40.30
2018-02-21T15:07:09.759Z,41.10
2018-02-21T15:09:37.855Z,41.03
2018-02-21T15:12:05.944Z,41.93
2018-02-21T15:14:34.025Z,41.10
2018-02-21T15:17:02.096Z,42.20
2018-02-21T15:19:30.164Z,42.37
2018-02-21T15:21:58.223Z,41.97
2018-02-21T15:24:26.289Z,41.97
2018-02-21T15:26:55.117Z,40.03
2018-02-21T15:29:23.185Z,39.77
2018-02-21T15:31:52.019Z,41.13
2018-02-21T15:34:20.080Z,40.43
2018-02-21T15:36:48.162Z,40.27
2018-02-21T15:39:16.237Z,38.73
2018-02-21T15:41:45.662Z,40.03
2018-02-21T15:44:13.717Z,41.47
2018-02-21T15:46:41.848Z,41.57
2018-02-21T15:49:09.923Z,40.20
2018-02-21T15:51:37.968Z,41.97
2018-02-21T15:54:06.028Z,39.03
2018-02-21T15:56:34.100Z,39.10
2018-02-21T15:59:02.155Z,39.77
2018-02-21T16:01:30.204Z,39.10
2018-02-21T16:03:58.262Z,38.90
2018-02-21T16:06:26.329Z,39.27
2018-02-21T16:08:54.401Z,39.20
2018-02-21T16:11:22.528Z,37.93
2018-02-21T16:13:50.588Z,39.20
2018-02-21T16:16:18.649Z,40.27
2018-02-21T16:18:46.720Z,43.83
2018-02-21T16:21:14.774Z,42.73
2018-02-21T16:23:43.617Z,37.90
2018-02-21T16:26:11.676Z,38.93
2018-02-21T16:28:39.753Z,39.90
2018-02-21T16:31:08.558Z,40.90
2018-02-21T16:33:36.626Z,40.90
2018-02-21T16:36:05.447Z,40.47
2018-02-21T16:38:33.540Z,40.87
2018-02-21T16:41:01.637Z,43.40
2018-02-21T16:43:29.696Z,43.03
2018-02-21T16:45:57.830Z,39.53
2018-02-21T16:48:25.887Z,41.80
2018-02-21T16:50:53.984Z,42.87
2018-02-21T16:53:22.219Z,44.70
2018-02-21T16:55:51.115Z,42.33
2018-02-21T16:58:19.170Z,41.93
2018-02-21T17:00:47.240Z,59.30
2018-02-21T17:03:15.382Z,47.30
2018-02-21T17:05:43.421Z,46.17
2018-02-21T17:08:11.490Z,41.83
2018-02-21T17:10:39.546Z,44.23
2018-02-21T17:13:07.655Z,53.73
2018-02-21T17:15:35.672Z,45.70
2018-02-21T17:18:03.756Z,47.53
2018-02-21T17:20:31.802Z,44.53
2018-02-21T17:22:59.872Z,44.93
2018-02-21T17:25:27.939Z,45.77
2018-02-21T17:27:56.017Z,41.30
2018-02-21T17:30:24.086Z,42.60
2018-02-21T17:32:52.157Z,39.10
2018-02-21T17:35:20.439Z,39.40
2018-02-21T17:37:48.498Z,40.17
2018-02-21T17:40:16.550Z,41.37
2018-02-21T17:42:44.707Z,38.03
2018-02-21T17:45:14.561Z,41.17
2018-02-21T17:47:42.637Z,40.30
2018-02-21T17:50:10.757Z,41.30
2018-02-21T17:52:38.842Z,45.23
2018-02-21T17:55:06.896Z,45.80
2018-02-21T17:57:34.940Z,43.30
2018-02-21T18:00:03.122Z,41.97
2018-02-21T18:02:31.182Z,42.57
2018-02-21T18:04:59.239Z,39.27
2018-02-21T18:07:27.312Z,43.20
2018-02-21T18:09:55.551Z,41.60
2018-02-21T18:12:23.632Z,42.80
2018-02-21T18:14:51.708Z,44.13
2018-02-21T18:17:19.790Z,41.53
2018-02-21T18:19:47.847Z,41.37
2018-02-21T18:22:15.919Z,41.60
2018-02-21T18:24:43.974Z,41.87
2018-02-21T18:27:12.039Z,44.07
2018-02-21T18:29:40.114Z,45.97
2018-02-21T18:32:08.183Z,44.33
2018-02-21T18:34:36.267Z,46.37
2018-02-21T18:37:04.375Z,42.07
2018-02-21T18:39:32.422Z,42.53
2018-02-21T18:42:00.492Z,42.40
2018-02-21T18:44:28.562Z,44.40
2018-02-21T18:46:56.640Z,44.07
2018-02-21T18:49:25.467Z,43.60
2018-02-21T18:51:53.547Z,43.37
2018-02-21T18:54:21.590Z,45.83
2018-02-21T18:56:50.430Z,47.83
2018-02-21T18:59:18.466Z,52.47
2018-02-21T19:01:46.538Z,48.13
2018-02-21T19:04:14.591Z,46.57
2018-02-21T19:06:42.668Z,68.67
2018-02-21T19:09:10.730Z,50.33
2018-02-21T19:11:38.845Z,50.73
2018-02-21T19:14:06.897Z,50.47
2018-02-21T19:16:34.993Z,53.27
2018-02-21T19:19:03.171Z,51.73
2018-02-21T19:21:31.240Z,50.90
2018-02-21T19:24:00.112Z,50.33
2018-02-21T19:26:28.217Z,47.13
2018-02-21T19:28:57.041Z,50.03
2018-02-21T19:31:25.135Z,43.53
2018-02-21T19:33:53.209Z,43.37
2018-02-21T19:36:21.310Z,43.13
2018-02-21T19:38:49.371Z,44.13
2018-02-21T19:41:17.558Z,42.70
2018-02-21T19:43:46.097Z,40.17
2018-02-21T19:46:14.166Z,45.33
2018-02-21T19:48:42.233Z,41.57
2018-02-21T19:51:10.505Z,39.37
2018-02-21T19:53:38.767Z,40.90
2018-02-21T19:56:06.920Z,38.00
2018-02-21T19:58:34.970Z,38.60
2018-02-21T20:01:07.693Z,36.77
2018-02-21T20:03:35.893Z,37.43
2018-02-21T20:06:03.934Z,41.13
2018-02-21T20:08:32.770Z,39.00
2018-02-21T20:11:00.921Z,36.90
2018-02-21T20:13:29.073Z,43.80
2018-02-21T20:15:57.167Z,39.30
2018-02-21T20:18:26.013Z,36.80
2018-02-21T20:20:54.088Z,38.47
2018-02-21T20:23:22.271Z,37.37
2018-02-21T20:25:50.319Z,36.10
2018-02-21T20:28:19.196Z,45.20
2018-02-21T20:30:47.280Z,55.57
2018-02-21T20:33:15.325Z,39.47
2018-02-21T20:35:43.423Z,40.17
2018-02-21T20:38:11.527Z,43.90
2018-02-21T20:40:39.587Z,40.13
2018-02-21T20:43:07.765Z,40.10
2018-02-21T20:45:36.707Z,38.27
2018-02-21T20:48:04.874Z,38.30
2018-02-21T20:50:33.091Z,37.23
2018-02-21T20:53:01.160Z,37.63
2018-02-21T20:55:29.239Z,34.70
2018-02-21T20:57:57.308Z,34.43
2018-02-21T21:00:25.367Z,35.67
2018-02-21T21:02:53.430Z,36.83
2018-02-21T21:05:22.347Z,38.23
2018-02-21T21:07:50.459Z,39.93
2018-02-21T21:10:18.555Z,37.63
2018-02-21T21:12:47.386Z,35.70
2018-02-21T21:15:16.194Z,36.93
2018-02-21T21:17:45.793Z,37.10
2018-02-21T21:20:13.843Z,35.80
2018-02-21T21:22:41.921Z,39.57
2018-02-21T21:25:10.777Z,39.23
2018-02-21T21:27:38.819Z,36.80
2018-02-21T21:30:06.874Z,38.73
2018-02-21T21:32:34.944Z,39.87
2018-02-21T21:35:03.004Z,43.10
2018-02-21T21:37:31.824Z,40.53
2018-02-21T21:39:59.880Z,37.90
2018-02-21T21:42:27.946Z,42.80
2018-02-21T21:44:56.001Z,46.23
2018-02-21T21:47:24.077Z,42.67
2018-02-21T21:49:52.181Z,41.33
2018-02-21T21:52:20.267Z,37.53
2018-02-21T21:54:48.322Z,33.60
2018-02-21T21:57:16.397Z,37.10
2018-02-21T21:59:45.714Z,37.80
2018-02-21T22:02:14.518Z,35.40
2018-02-21T22:04:42.619Z,38.43
2018-02-21T22:07:10.698Z,45.17
2018-02-21T22:09:39.384Z,40.93
2018-02-21T22:12:08.320Z,36.70
2018-02-21T22:14:37.313Z,35.93
2018-02-21T22:17:06.220Z,36.87
2018-02-21T22:19:34.283Z,38.30
2018-02-21T22:22:02.383Z,34.53
2018-02-21T22:24:30.440Z,36.07
2018-02-21T22:26:58.620Z,36.97
2018-02-21T22:29:26.683Z,36.10
2018-02-21T22:31:55.503Z,37.50
2018-02-21T22:34:23.599Z,33.73
2018-02-21T22:36:51.676Z,36.37
2018-02-21T22:39:19.758Z,36.77
2018-02-21T22:41:47.872Z,36.37
2018-02-21T22:44:16.028Z,36.00
2018-02-21T22:46:44.109Z,34.03
2018-02-21T22:49:12.214Z,37.43
2018-02-21T22:51:40.326Z,34.70
2018-02-21T22:54:08.396Z,34.93
2018-02-21T22:56:36.446Z,38.43
2018-02-21T22:59:04.606Z,38.20
2018-02-21T23:01:33.434Z,35.43
2018-02-21T23:04:01.613Z,37.13
2018-02-21T23:06:30.548Z,35.27
2018-02-21T23:08:58.631Z,36.17
2018-02-21T23:11:26.709Z,37.27
2018-02-21T23:13:54.770Z,35.30
2018-02-21T23:16:22.871Z,36.67
2018-02-21T23:18:50.950Z,36.23
2018-02-21T23:21:19.000Z,37.10
2018-02-21T23:23:47.055Z,38.73
2018-02-21T23:26:16.033Z,38.77
2018-02-21T23:28:44.136Z,36.87
2018-02-21T23:31:12.211Z,40.27
2018-02-21T23:33:40.296Z,40.83
2018-02-21T23:36:08.361Z,40.83
2018-02-21T23:38:38.394Z,36.40
2018-02-21T23:41:06.544Z,36.30
2018-02-21T23:43:35.486Z,37.03
2018-02-21T23:46:03.592Z,35.27
2018-02-21T23:48:31.654Z,36.17
2018-02-21T23:50:59.713Z,35.07
2018-02-21T23:53:27.766Z,38.23
2018-02-21T23:55:55.862Z,37.23
2018-02-21T23:58:23.887Z,37.33
